sensor_id;sensor_type;location;lat;lon;timestamp;pressure;altitude;pressure_sealevel;temperature;humidity
50380;BME280;37474;59.468;18.040;2022-11-24T00:01:12;101376.28;;;0.43;100.00
50380;BME280;37474;59.468;18.040;2022-11-24T00:03:41;101369.50;;;0.40;100.00
50380;BME280;37474;59.468;18.040;2022-11-24T00:06:13;101321.84;;;0.10;100.00
50380;BME280;37474;59.468;18.040;2022-11-24T00:08:43;101366.94;;;0.45;100.00
50380;BME280;37474;59.468;18.040;2022-11-24T00:11:13;101314.22;;;0.13;100.00
50380;BME280;37474;59.468;18.040;2022-11-24T00:13:42;101305.72;;;0.08;100.00
50380;BME280;37474;59.468;18.040;2022-11-24T00:16:11;101366.94;;;0.31;100.00
50380;BME280;37474;59.468;18.040;2022-11-24T00:18:42;101361.81;;;0.37;100.00
50380;BME280;37474;59.468;18.040;2022-11-24T00:21:12;101364.38;;;0.42;100.00
50380;BME280;37474;59.468;18.040;2022-11-24T00:23:41;101341.44;;;0.28;100.00
50380;BME280;37474;59.468;18.040;2022-11-24T00:26:11;101374.59;;;0.42;100.00
50380;BME280;37474;59.468;18.040;2022-11-24T00:28:39;101385.66;;;0.45;100.00
50380;BME280;37474;59.468;18.040;2022-11-24T00:31:15;101370.31;;;0.44;100.00
50380;BME280;37474;59.468;18.040;2022-11-24T00:33:44;101371.19;;;0.40;100.00
50380;BME280;37474;59.468;18.040;2022-11-24T00:36:14;101369.50;;;0.45;100.00
50380;BME280;37474;59.468;18.040;2022-11-24T00:38:43;101380.53;;;0.47;100.00
50380;BME280;37474;59.468;18.040;2022-11-24T00:41:12;101369.47;;;0.37;100.00
50380;BME280;37474;59.468;18.040;2022-11-24T00:43:40;101360.16;;;0.39;100.00
50380;BME280;37474;59.468;18.040;2022-11-24T00:46:08;101376.31;;;0.46;100.00
50380;BME280;37474;59.468;18.040;2022-11-24T00:48:37;101381.41;;;0.57;100.00
50380;BME280;37474;59.468;18.040;2022-11-24T00:51:06;101379.69;;;0.39;100.00
50380;BME280;37474;59.468;18.040;2022-11-24T00:53:36;101386.50;;;0.43;100.00
50380;BME280;37474;59.468;18.040;2022-11-24T00:56:05;101383.94;;;0.38;100.00
50380;BME280;37474;59.468;18.040;2022-11-24T00:58:34;101378.81;;;0.38;100.00
50380;BME280;37474;59.468;18.040;2022-11-24T01:01:05;101361.81;;;0.33;100.00
50380;BME280;37474;59.468;18.040;2022-11-24T01:03:34;101381.38;;;0.43;100.00
50380;BME280;37474;59.468;18.040;2022-11-24T01:06:03;101329.50;;;0.07;100.00
50380;BME280;37474;59.468;18.040;2022-11-24T01:08:31;101366.91;;;0.20;100.00
50380;BME280;37474;59.468;18.040;2022-11-24T01:11:08;101342.25;;;0.27;100.00
50380;BME280;37474;59.468;18.040;2022-11-24T01:13:36;101387.34;;;0.57;100.00
50380;BME280;37474;59.468;18.040;2022-11-24T01:16:05;101389.88;;;0.39;100.00
50380;BME280;37474;59.468;18.040;2022-11-24T01:18:34;101383.09;;;0.44;100.00
50380;BME280;37474;59.468;18.040;2022-11-24T01:21:03;101382.25;;;0.59;100.00
50380;BME280;37474;59.468;18.040;2022-11-24T01:23:36;101315.91;;;0.02;100.00
50380;BME280;37474;59.468;18.040;2022-11-24T01:26:04;101356.69;;;0.16;100.00
50380;BME280;37474;59.468;18.040;2022-11-24T01:28:34;101388.19;;;0.30;100.00
50380;BME280;37474;59.468;18.040;2022-11-24T01:31:08;101383.94;;;0.53;100.00
50380;BME280;37474;59.468;18.040;2022-11-24T01:33:36;101339.75;;;0.35;100.00
50380;BME280;37474;59.468;18.040;2022-11-24T01:36:05;101321.00;;;-0.03;100.00
50380;BME280;37474;59.468;18.040;2022-11-24T01:38:33;101365.22;;;0.30;100.00
50380;BME280;37474;59.468;18.040;2022-11-24T01:41:03;101400.91;;;0.12;100.00
50380;BME280;37474;59.468;18.040;2022-11-24T01:43:33;101365.97;;;-0.18;100.00
50380;BME280;37474;59.468;18.040;2022-11-24T01:46:05;101394.91;;;-0.09;100.00
50380;BME280;37474;59.468;18.040;2022-11-24T01:48:42;101398.25;;;-0.17;100.00
50380;BME280;37474;59.468;18.040;2022-11-24T01:51:13;101359.16;;;-0.29;100.00
50380;BME280;37474;59.468;18.040;2022-11-24T01:53:48;101406.00;;;0.07;100.00
50380;BME280;37474;59.468;18.040;2022-11-24T01:56:19;101407.72;;;0.11;100.00
50380;BME280;37474;59.468;18.040;2022-11-24T01:58:49;101400.91;;;0.06;100.00
50380;BME280;37474;59.468;18.040;2022-11-24T02:01:19;101407.72;;;0.20;100.00
50380;BME280;37474;59.468;18.040;2022-11-24T02:03:48;101410.22;;;0.04;100.00
50380;BME280;37474;59.468;18.040;2022-11-24T02:06:19;101401.78;;;0.31;100.00
50380;BME280;37474;59.468;18.040;2022-11-24T02:08:52;101341.28;;;-0.41;100.00
50380;BME280;37474;59.468;18.040;2022-11-24T02:11:26;101411.91;;;-0.09;100.00
50380;BME280;37474;59.468;18.040;2022-11-24T02:13:56;101405.94;;;-0.13;100.00
50380;BME280;37474;59.468;18.040;2022-11-24T02:16:25;101408.53;;;-0.05;100.00
50380;BME280;37474;59.468;18.040;2022-11-24T02:18:53;101397.38;;;-0.24;100.00
50380;BME280;37474;59.468;18.040;2022-11-24T02:21:21;101403.41;;;-0.08;100.00
50380;BME280;37474;59.468;18.040;2022-11-24T02:23:54;101374.41;;;-0.39;100.00
50380;BME280;37474;59.468;18.040;2022-11-24T02:26:33;101401.75;;;0.09;100.00
50380;BME280;37474;59.468;18.040;2022-11-24T02:29:03;101354.03;;;-0.38;100.00
50380;BME280;37474;59.468;18.040;2022-11-24T02:31:31;101402.53;;;-0.12;100.00
50380;BME280;37474;59.468;18.040;2022-11-24T02:33:59;101401.72;;;-0.11;100.00
50380;BME280;37474;59.468;18.040;2022-11-24T02:36:28;101404.25;;;-0.02;100.00
50380;BME280;37474;59.468;18.040;2022-11-24T02:38:56;101403.41;;;0.04;100.00
50380;BME280;37474;59.468;18.040;2022-11-24T02:41:25;101410.16;;;-0.12;100.00
50380;BME280;37474;59.468;18.040;2022-11-24T02:43:58;101340.38;;;-0.58;100.00
50380;BME280;37474;59.468;18.040;2022-11-24T02:46:26;101396.63;;;-0.03;100.00
50380;BME280;37474;59.468;18.040;2022-11-24T02:48:54;101392.38;;;0.04;100.00
50380;BME280;37474;59.468;18.040;2022-11-24T02:51:23;101365.19;;;0.07;100.00
50380;BME280;37474;59.468;18.040;2022-11-24T02:53:50;101396.66;;;0.28;100.00
50380;BME280;37474;59.468;18.040;2022-11-24T02:56:18;101394.97;;;0.23;100.00
50380;BME280;37474;59.468;18.040;2022-11-24T02:58:47;101353.25;;;-0.20;100.00
50380;BME280;37474;59.468;18.040;2022-11-24T03:01:16;101406.00;;;0.15;100.00
50380;BME280;37474;59.468;18.040;2022-11-24T03:03:44;101400.09;;;0.43;100.00
50380;BME280;37474;59.468;18.040;2022-11-24T03:06:13;101402.66;;;0.42;100.00
50380;BME280;37474;59.468;18.040;2022-11-24T03:08:41;101399.25;;;0.37;100.00
50380;BME280;37474;59.468;18.040;2022-11-24T03:11:09;101395.81;;;0.32;100.00
50380;BME280;37474;59.468;18.040;2022-11-24T03:13:37;101399.25;;;0.34;100.00
50380;BME280;37474;59.468;18.040;2022-11-24T03:16:07;101371.13;;;0.03;100.00
50380;BME280;37474;59.468;18.040;2022-11-24T03:18:37;101403.47;;;0.25;100.00
50380;BME280;37474;59.468;18.040;2022-11-24T03:21:05;101404.34;;;0.43;100.00
50380;BME280;37474;59.468;18.040;2022-11-24T03:23:33;101402.63;;;0.49;100.00
50380;BME280;37474;59.468;18.040;2022-11-24T03:26:08;101404.38;;;0.67;100.00
50380;BME280;37474;59.468;18.040;2022-11-24T03:28:36;101396.69;;;0.37;100.00
50380;BME280;37474;59.468;18.040;2022-11-24T03:31:04;101390.75;;;0.47;100.00
50380;BME280;37474;59.468;18.040;2022-11-24T03:33:33;101397.56;;;0.59;100.00
50380;BME280;37474;59.468;18.040;2022-11-24T03:36:03;101395.00;;;0.52;100.00
50380;BME280;37474;59.468;18.040;2022-11-24T03:38:32;101398.41;;;0.47;100.00
50380;BME280;37474;59.468;18.040;2022-11-24T03:41:00;101392.47;;;0.45;100.00
50380;BME280;37474;59.468;18.040;2022-11-24T03:43:28;101392.44;;;0.40;100.00
50380;BME280;37474;59.468;18.040;2022-11-24T03:45:56;101398.38;;;0.38;100.00
50380;BME280;37474;59.468;18.040;2022-11-24T03:48:24;101354.13;;;-0.10;100.00
50380;BME280;37474;59.468;18.040;2022-11-24T03:50:54;101370.28;;;-0.01;100.00
50380;BME280;37474;59.468;18.040;2022-11-24T03:53:25;101403.47;;;0.19;100.00
50380;BME280;37474;59.468;18.040;2022-11-24T03:55:54;101396.63;;;0.00;100.00
50380;BME280;37474;59.468;18.040;2022-11-24T03:58:23;101384.72;;;-0.10;100.00
50380;BME280;37474;59.468;18.040;2022-11-24T04:00:52;101388.13;;;0.01;100.00
50380;BME280;37474;59.468;18.040;2022-11-24T04:03:21;101412.78;;;0.05;100.00
50380;BME280;37474;59.468;18.040;2022-11-24T04:05:49;101419.59;;;0.09;100.00
50380;BME280;37474;59.468;18.040;2022-11-24T04:08:17;101394.94;;;0.01;100.00
50380;BME280;37474;59.468;18.040;2022-11-24T04:10:50;101421.28;;;0.10;100.00
50380;BME280;37474;59.468;18.040;2022-11-24T04:13:19;101416.16;;;-0.02;100.00
50380;BME280;37474;59.468;18.040;2022-11-24T04:15:47;101416.22;;;0.21;100.00
50380;BME280;37474;59.468;18.040;2022-11-24T04:18:15;101413.66;;;0.19;100.00
50380;BME280;37474;59.468;18.040;2022-11-24T04:20:43;101389.88;;;0.36;100.00
50380;BME280;37474;59.468;18.040;2022-11-24T04:23:12;101377.97;;;0.18;100.00
50380;BME280;37474;59.468;18.040;2022-11-24T04:25:40;101418.75;;;0.16;100.00
50380;BME280;37474;59.468;18.040;2022-11-24T04:28:10;101413.66;;;0.06;100.00
50380;BME280;37474;59.468;18.040;2022-11-24T04:30:38;101414.50;;;0.12;100.00
50380;BME280;37474;59.468;18.040;2022-11-24T04:33:11;101361.69;;;-0.36;100.00
50380;BME280;37474;59.468;18.040;2022-11-24T04:35:39;101366.03;;;-0.09;100.00
50380;BME280;37474;59.468;18.040;2022-11-24T04:38:07;101417.94;;;0.49;100.00
50380;BME280;37474;59.468;18.040;2022-11-24T04:40:36;101417.94;;;0.43;100.00
50380;BME280;37474;59.468;18.040;2022-11-24T04:43:04;101386.44;;;0.05;100.00
50380;BME280;37474;59.468;18.040;2022-11-24T04:45:33;101409.44;;;0.41;100.00
50380;BME280;37474;59.468;18.040;2022-11-24T04:48:01;101423.91;;;0.39;100.00
50380;BME280;37474;59.468;18.040;2022-11-24T04:50:30;101438.34;;;0.43;100.00
50380;BME280;37474;59.468;18.040;2022-11-24T04:52:58;101434.91;;;0.28;100.00
50380;BME280;37474;59.468;18.040;2022-11-24T04:55:26;101407.72;;;0.20;100.00
50380;BME280;37474;59.468;18.040;2022-11-24T04:57:54;101425.56;;;0.20;100.00
50380;BME280;37474;59.468;18.040;2022-11-24T05:00:22;101426.44;;;0.42;100.00
50380;BME280;37474;59.468;18.040;2022-11-24T05:02:52;101427.31;;;0.49;100.00
50380;BME280;37474;59.468;18.040;2022-11-24T05:05:20;101429.88;;;0.40;100.00
50380;BME280;37474;59.468;18.040;2022-11-24T05:07:48;101428.16;;;0.36;100.00
50380;BME280;37474;59.468;18.040;2022-11-24T05:10:16;101411.16;;;0.39;100.00
50380;BME280;37474;59.468;18.040;2022-11-24T05:13:04;101440.94;;;0.45;100.00
50380;BME280;37474;59.468;18.040;2022-11-24T05:15:32;101400.06;;;0.17;100.00
50380;BME280;37474;59.468;18.040;2022-11-24T05:18:04;101446.00;;;0.34;100.00
50380;BME280;37474;59.468;18.040;2022-11-24T05:20:33;101410.22;;;0.02;100.00
50380;BME280;37474;59.468;18.040;2022-11-24T05:23:01;101445.94;;;0.08;100.00
50380;BME280;37474;59.468;18.040;2022-11-24T05:25:31;101447.66;;;0.18;100.00
50380;BME280;37474;59.468;18.040;2022-11-24T05:27:59;101447.69;;;0.24;100.00
50380;BME280;37474;59.468;18.040;2022-11-24T05:30:28;101451.94;;;0.30;100.00
50380;BME280;37474;59.468;18.040;2022-11-24T05:32:56;101447.75;;;0.64;100.00
50380;BME280;37474;59.468;18.040;2022-11-24T05:35:26;101450.25;;;0.34;100.00
50380;BME280;37474;59.468;18.040;2022-11-24T05:37:54;101447.72;;;0.34;100.00
50380;BME280;37474;59.468;18.040;2022-11-24T05:40:24;101440.94;;;0.45;100.00
50380;BME280;37474;59.468;18.040;2022-11-24T05:42:52;101441.75;;;0.36;100.00
50380;BME280;37474;59.468;18.040;2022-11-24T05:45:21;101443.44;;;0.36;100.00
50380;BME280;37474;59.468;18.040;2022-11-24T05:47:49;101444.31;;;0.39;100.00
50380;BME280;37474;59.468;18.040;2022-11-24T05:50:20;101443.47;;;0.45;100.00
50380;BME280;37474;59.468;18.040;2022-11-24T05:52:50;101451.13;;;0.48;100.00
50380;BME280;37474;59.468;18.040;2022-11-24T05:55:19;101410.28;;;0.23;100.00
50380;BME280;37474;59.468;18.040;2022-11-24T05:57:47;101454.53;;;0.48;100.00
50380;BME280;37474;59.468;18.040;2022-11-24T06:00:15;101452.81;;;0.43;100.00
50380;BME280;37474;59.468;18.040;2022-11-24T06:02:45;101456.25;;;0.51;100.00
50380;BME280;37474;59.468;18.040;2022-11-24T06:05:14;101451.13;;;0.60;100.00
50380;BME280;37474;59.468;18.040;2022-11-24T06:07:43;101449.44;;;0.56;100.00
50380;BME280;37474;59.468;18.040;2022-11-24T06:10:14;101451.13;;;0.65;100.00
50380;BME280;37474;59.468;18.040;2022-11-24T06:12:42;101452.84;;;0.50;100.00
50380;BME280;37474;59.468;18.040;2022-11-24T06:15:11;101457.94;;;0.47;100.00
50380;BME280;37474;59.468;18.040;2022-11-24T06:17:39;101462.22;;;0.56;100.00
50380;BME280;37474;59.468;18.040;2022-11-24T06:20:08;101448.56;;;0.49;100.00
50380;BME280;37474;59.468;18.040;2022-11-24T06:22:37;101460.50;;;0.52;100.00
50380;BME280;37474;59.468;18.040;2022-11-24T06:25:05;101475.78;;;0.52;100.00
50380;BME280;37474;59.468;18.040;2022-11-24T06:27:36;101467.28;;;0.50;100.00
50380;BME280;37474;59.468;18.040;2022-11-24T06:30:05;101439.19;;;0.33;100.00
50380;BME280;37474;59.468;18.040;2022-11-24T06:32:33;101461.34;;;0.57;100.00
50380;BME280;37474;59.468;18.040;2022-11-24T06:35:01;101468.97;;;0.48;100.00
50380;BME280;37474;59.468;18.040;2022-11-24T06:37:29;101474.09;;;0.52;100.00
50380;BME280;37474;59.468;18.040;2022-11-24T06:39:57;101450.28;;;0.46;100.00
50380;BME280;37474;59.468;18.040;2022-11-24T06:42:25;101476.63;;;0.48;100.00
50380;BME280;37474;59.468;18.040;2022-11-24T06:44:54;101481.75;;;0.60;100.00
50380;BME280;37474;59.468;18.040;2022-11-24T06:47:22;101472.41;;;0.62;100.00
50380;BME280;37474;59.468;18.040;2022-11-24T06:49:50;101476.66;;;0.51;100.00
50380;BME280;37474;59.468;18.040;2022-11-24T06:52:19;101489.41;;;0.63;100.00
50380;BME280;37474;59.468;18.040;2022-11-24T06:54:47;101486.84;;;0.45;100.00
50380;BME280;37474;59.468;18.040;2022-11-24T06:57:15;101497.06;;;0.60;100.00
50380;BME280;37474;59.468;18.040;2022-11-24T06:59:43;101488.59;;;0.73;100.00
50380;BME280;37474;59.468;18.040;2022-11-24T07:02:12;101443.47;;;0.34;100.00
50380;BME280;37474;59.468;18.040;2022-11-24T07:04:40;101487.72;;;0.70;100.00
50380;BME280;37474;59.468;18.040;2022-11-24T07:07:08;101486.00;;;0.66;100.00
50380;BME280;37474;59.468;18.040;2022-11-24T07:09:36;101471.56;;;0.69;100.00
50380;BME280;37474;59.468;18.040;2022-11-24T07:12:04;101489.41;;;0.71;100.00
50380;BME280;37474;59.468;18.040;2022-11-24T07:14:32;101491.13;;;0.93;100.00
50380;BME280;37474;59.468;18.040;2022-11-24T07:17:00;101494.53;;;0.74;100.00
50380;BME280;37474;59.468;18.040;2022-11-24T07:19:31;101497.94;;;0.71;100.00
50380;BME280;37474;59.468;18.040;2022-11-24T07:21:59;101488.59;;;0.86;100.00
50380;BME280;37474;59.468;18.040;2022-11-24T07:24:27;101499.66;;;0.72;100.00
50380;BME280;37474;59.468;18.040;2022-11-24T07:26:56;101504.75;;;0.72;100.00
50380;BME280;37474;59.468;18.040;2022-11-24T07:29:24;101497.97;;;0.85;100.00
50380;BME280;37474;59.468;18.040;2022-11-24T07:31:51;101507.28;;;0.77;100.00
50380;BME280;37474;59.468;18.040;2022-11-24T07:34:20;101503.06;;;0.94;100.00
50380;BME280;37474;59.468;18.040;2022-11-24T07:36:49;101486.91;;;0.91;100.00
50380;BME280;37474;59.468;18.040;2022-11-24T07:39:17;101500.53;;;1.02;100.00
50380;BME280;37474;59.468;18.040;2022-11-24T07:41:45;101496.25;;;1.19;100.00
50380;BME280;37474;59.468;18.040;2022-11-24T07:44:13;101496.28;;;1.05;100.00
50380;BME280;37474;59.468;18.040;2022-11-24T07:46:41;101483.50;;;0.86;100.00
50380;BME280;37474;59.468;18.040;2022-11-24T07:49:09;101496.25;;;1.04;100.00
50380;BME280;37474;59.468;18.040;2022-11-24T07:51:37;101497.94;;;1.16;100.00
50380;BME280;37474;59.468;18.040;2022-11-24T07:54:06;101502.22;;;1.20;100.00
50380;BME280;37474;59.468;18.040;2022-11-24T07:56:34;101503.06;;;1.29;100.00
50380;BME280;37474;59.468;18.040;2022-11-24T07:59:03;101500.50;;;1.14;100.00
50380;BME280;37474;59.468;18.040;2022-11-24T08:01:31;101509.03;;;1.22;100.00
50380;BME280;37474;59.468;18.040;2022-11-24T08:03:59;101510.72;;;1.42;100.00
50380;BME280;37474;59.468;18.040;2022-11-24T08:06:28;101516.66;;;1.56;100.00
50380;BME280;37474;59.468;18.040;2022-11-24T08:09:08;101492.81;;;1.46;100.00
50380;BME280;37474;59.468;18.040;2022-11-24T08:11:36;101508.97;;;1.59;100.00
50380;BME280;37474;59.468;18.040;2022-11-24T08:14:04;101513.22;;;1.58;100.00
50380;BME280;37474;59.468;18.040;2022-11-24T08:16:32;101513.22;;;1.66;100.00
50380;BME280;37474;59.468;18.040;2022-11-24T08:19:00;101463.88;;;1.40;100.00
50380;BME280;37474;59.468;18.040;2022-11-24T08:21:28;101517.44;;;1.82;100.00
50380;BME280;37474;59.468;18.040;2022-11-24T08:23:58;101529.38;;;1.79;100.00
50380;BME280;37474;59.468;18.040;2022-11-24T08:26:27;101527.69;;;1.73;100.00
50380;BME280;37474;59.468;18.040;2022-11-24T08:28:57;101524.28;;;1.74;100.00
50380;BME280;37474;59.468;18.040;2022-11-24T08:31:27;101522.59;;;1.73;100.00
50380;BME280;37474;59.468;18.040;2022-11-24T08:34:01;101531.03;;;1.94;100.00
50380;BME280;37474;59.468;18.040;2022-11-24T08:36:29;101524.22;;;2.00;100.00
50380;BME280;37474;59.468;18.040;2022-11-24T08:38:58;101503.75;;;1.99;100.00
50380;BME280;37474;59.468;18.040;2022-11-24T08:41:28;101536.09;;;2.09;100.00
50380;BME280;37474;59.468;18.040;2022-11-24T08:43:57;101489.34;;;1.78;100.00
50380;BME280;37474;59.468;18.040;2022-11-24T08:46:25;101530.13;;;2.15;100.00
50380;BME280;37474;59.468;18.040;2022-11-24T08:48:53;101511.41;;;2.06;100.00
50380;BME280;37474;59.468;18.040;2022-11-24T08:51:23;101530.88;;;2.32;100.00
50380;BME280;37474;59.468;18.040;2022-11-24T08:53:53;101535.13;;;2.41;100.00
50380;BME280;37474;59.468;18.040;2022-11-24T08:56:23;101532.63;;;2.28;100.00
50380;BME280;37474;59.468;18.040;2022-11-24T08:58:52;101497.84;;;1.84;100.00
50380;BME280;37474;59.468;18.040;2022-11-24T09:01:21;101537.84;;;1.99;100.00
50380;BME280;37474;59.468;18.040;2022-11-24T09:03:49;101545.47;;;2.08;100.00
50380;BME280;37474;59.468;18.040;2022-11-24T09:06:21;101548.91;;;2.12;100.00
50380;BME280;37474;59.468;18.040;2022-11-24T09:08:49;101542.94;;;2.08;100.00
50380;BME280;37474;59.468;18.040;2022-11-24T09:11:18;101544.56;;;2.22;100.00
50380;BME280;37474;59.468;18.040;2022-11-24T09:13:46;101552.31;;;2.11;100.00
50380;BME280;37474;59.468;18.040;2022-11-24T09:16:18;101552.34;;;2.00;100.00
50380;BME280;37474;59.468;18.040;2022-11-24T09:18:47;101548.06;;;1.99;100.00
50380;BME280;37474;59.468;18.040;2022-11-24T09:21:24;101502.13;;;1.70;100.00
50380;BME280;37474;59.468;18.040;2022-11-24T09:23:53;101524.22;;;1.88;100.00
50380;BME280;37474;59.468;18.040;2022-11-24T09:26:23;101502.97;;;1.66;100.00
50380;BME280;37474;59.468;18.040;2022-11-24T09:28:52;101551.53;;;1.81;100.00
50380;BME280;37474;59.468;18.040;2022-11-24T09:31:25;101561.72;;;1.94;100.00
50380;BME280;37474;59.468;18.040;2022-11-24T09:33:54;101562.56;;;2.00;100.00
50380;BME280;37474;59.468;18.040;2022-11-24T09:36:23;101560.00;;;2.02;100.00
50380;BME280;37474;59.468;18.040;2022-11-24T09:38:51;101562.56;;;1.94;100.00
50380;BME280;37474;59.468;18.040;2022-11-24T09:44:13;101548.91;;;2.00;100.00
50380;BME280;37474;59.468;18.040;2022-11-24T09:46:55;101549.75;;;2.05;100.00
50380;BME280;37474;59.468;18.040;2022-11-24T09:49:32;101554.84;;;2.14;100.00
50380;BME280;37474;59.468;18.040;2022-11-24T09:52:03;101557.38;;;2.19;100.00
50380;BME280;37474;59.468;18.040;2022-11-24T09:54:40;101558.25;;;2.22;100.00
50380;BME280;37474;59.468;18.040;2022-11-24T09:57:13;101555.69;;;2.22;100.00
50380;BME280;37474;59.468;18.040;2022-11-24T09:59:42;101555.63;;;2.30;100.00
50380;BME280;37474;59.468;18.040;2022-11-24T10:02:12;101504.63;;;1.92;100.00
50380;BME280;37474;59.468;18.040;2022-11-24T10:04:41;101556.59;;;1.98;100.00
50380;BME280;37474;59.468;18.040;2022-11-24T10:07:18;101554.88;;;2.11;100.00
50380;BME280;37474;59.468;18.040;2022-11-24T10:09:55;101553.13;;;2.15;100.00
50380;BME280;37474;59.468;18.040;2022-11-24T10:12:37;101561.72;;;2.06;100.00
50380;BME280;37474;59.468;18.040;2022-11-24T10:15:17;101560.00;;;2.11;100.00
50380;BME280;37474;59.468;18.040;2022-11-24T10:18:28;101558.25;;;2.19;100.00
50380;BME280;37474;59.468;18.040;2022-11-24T10:21:28;101559.91;;;2.29;100.00
50380;BME280;37474;59.468;18.040;2022-11-24T10:24:21;101559.03;;;2.30;100.00
50380;BME280;37474;59.468;18.040;2022-11-24T10:26:55;101556.50;;;2.30;100.00
50380;BME280;37474;59.468;18.040;2022-11-24T10:29:30;101567.66;;;2.13;100.00
50380;BME280;37474;59.468;18.040;2022-11-24T10:32:05;101568.47;;;2.22;100.00
50380;BME280;37474;59.468;18.040;2022-11-24T10:34:41;101571.88;;;2.23;100.00
50380;BME280;37474;59.468;18.040;2022-11-24T10:37:15;101565.91;;;2.16;100.00
50380;BME280;37474;59.468;18.040;2022-11-24T10:39:51;101573.59;;;2.16;100.00
50380;BME280;37474;59.468;18.040;2022-11-24T10:42:27;101567.63;;;2.19;100.00
50380;BME280;37474;59.468;18.040;2022-11-24T10:44:59;101509.78;;;1.76;100.00
50380;BME280;37474;59.468;18.040;2022-11-24T10:47:28;101563.34;;;2.19;100.00
50380;BME280;37474;59.468;18.040;2022-11-24T10:50:00;101528.50;;;1.89;100.00
50380;BME280;37474;59.468;18.040;2022-11-24T10:52:33;101570.19;;;2.14;100.00
50380;BME280;37474;59.468;18.040;2022-11-24T10:55:04;101560.78;;;2.19;100.00
50380;BME280;37474;59.468;18.040;2022-11-24T10:57:34;101563.34;;;2.24;100.00
50380;BME280;37474;59.468;18.040;2022-11-24T11:00:30;101568.47;;;2.21;100.00
50380;BME280;37474;59.468;18.040;2022-11-24T11:03:23;101576.94;;;2.36;100.00
50380;BME280;37474;59.468;18.040;2022-11-24T11:05:55;101571.00;;;2.27;100.00
50380;BME280;37474;59.468;18.040;2022-11-24T11:08:25;101576.97;;;2.27;100.00
50380;BME280;37474;59.468;18.040;2022-11-24T11:11:13;101578.63;;;2.33;100.00
50380;BME280;37474;59.468;18.040;2022-11-24T11:13:50;101581.19;;;2.36;100.00
50380;BME280;37474;59.468;18.040;2022-11-24T11:16:34;101575.22;;;2.35;100.00
50380;BME280;37474;59.468;18.040;2022-11-24T11:19:05;101581.19;;;2.37;100.00
50380;BME280;37474;59.468;18.040;2022-11-24T11:22:20;101587.22;;;2.24;100.00
50380;BME280;37474;59.468;18.040;2022-11-24T11:25:03;101521.69;;;1.85;100.00
50380;BME280;37474;59.468;18.040;2022-11-24T11:27:31;101582.94;;;2.28;100.00
50380;BME280;37474;59.468;18.040;2022-11-24T11:30:16;101586.31;;;2.37;100.00
50380;BME280;37474;59.468;18.040;2022-11-24T11:33:19;101559.16;;;2.01;100.00
50380;BME280;37474;59.468;18.040;2022-11-24T11:36:09;101593.19;;;2.25;100.00
50380;BME280;37474;59.468;18.040;2022-11-24T11:38:39;101592.31;;;2.27;100.00
50380;BME280;37474;59.468;18.040;2022-11-24T11:41:17;101597.44;;;2.24;100.00
50380;BME280;37474;59.468;18.040;2022-11-24T11:43:49;101597.44;;;2.24;100.00
50380;BME280;37474;59.468;18.040;2022-11-24T11:46:19;101592.28;;;2.40;100.00
50380;BME280;37474;59.468;18.040;2022-11-24T11:48:48;101560.78;;;2.16;100.00
50380;BME280;37474;59.468;18.040;2022-11-24T11:51:30;101534.44;;;1.93;100.00
50380;BME280;37474;59.468;18.040;2022-11-24T11:54:33;101591.50;;;2.18;100.00
50380;BME280;37474;59.468;18.040;2022-11-24T11:57:09;101586.41;;;2.05;100.00
50380;BME280;37474;59.468;18.040;2022-11-24T12:00:18;101559.19;;;1.86;100.00
50380;BME280;37474;59.468;18.040;2022-11-24T12:03:07;101600.06;;;2.07;100.00
50380;BME280;37474;59.468;18.040;2022-11-24T12:05:46;101589.88;;;1.91;100.00
50380;BME280;37474;59.468;18.040;2022-11-24T12:08:29;101604.31;;;2.10;100.00
50380;BME280;37474;59.468;18.040;2022-11-24T12:11:27;101607.69;;;2.29;100.00
50380;BME280;37474;59.468;18.040;2022-11-24T12:14:22;101604.28;;;2.21;100.00
50380;BME280;37474;59.468;18.040;2022-11-24T12:16:59;101609.38;;;2.21;100.00
50380;BME280;37474;59.468;18.040;2022-11-24T12:19:54;101603.44;;;2.23;100.00
50380;BME280;37474;59.468;18.040;2022-11-24T12:22:37;101605.09;;;2.32;100.00
50380;BME280;37474;59.468;18.040;2022-11-24T12:25:19;101602.59;;;2.15;100.00
50380;BME280;37474;59.468;18.040;2022-11-24T12:27:58;101607.69;;;2.21;100.00
50380;BME280;37474;59.468;18.040;2022-11-24T12:30:37;101611.16;;;2.11;100.00
50380;BME280;37474;59.468;18.040;2022-11-24T12:33:19;101552.38;;;1.80;100.00
50380;BME280;37474;59.468;18.040;2022-11-24T12:35:56;101599.22;;;2.01;100.00
50380;BME280;37474;59.468;18.040;2022-11-24T12:38:43;101603.44;;;2.20;100.00
50380;BME280;37474;59.468;18.040;2022-11-24T12:41:26;101600.91;;;2.17;100.00
50380;BME280;37474;59.468;18.040;2022-11-24T12:44:26;101604.28;;;2.19;100.00
50380;BME280;37474;59.468;18.040;2022-11-24T12:47:02;101613.69;;;2.03;100.00
50380;BME280;37474;59.468;18.040;2022-11-24T12:49:41;101605.19;;;1.98;100.00
50380;BME280;37474;59.468;18.040;2022-11-24T12:52:24;101607.72;;;2.09;100.00
50380;BME280;37474;59.468;18.040;2022-11-24T12:54:53;101600.91;;;2.05;100.00
50380;BME280;37474;59.468;18.040;2022-11-24T12:57:26;101610.28;;;2.00;100.00
50380;BME280;37474;59.468;18.040;2022-11-24T13:00:04;101605.19;;;1.88;100.00
50380;BME280;37474;59.468;18.040;2022-11-24T13:02:44;101611.19;;;1.83;100.00
50380;BME280;37474;59.468;18.040;2022-11-24T13:05:21;101607.78;;;1.81;100.00